Time;durP1;ratioP1;P1;durP2;ratioP2;P2;SDS_P1;SDS_P2;PMS_P1;PMS_P2;Temp;Humidity;BMP_temperature;BMP_pressure;BME280_temperature;BME280_humidity;BME280_pressure;Samples;Min_cycle;Max_cycle;Signal;HPM_P1;HPM_P2
2022/11/14 00:02:06;;;;;;;30.42;19.90;;;;;;;-144.40;100.00;60209.53;4836235;29;20042;-92
2022/11/14 00:04:31;;;;;;;31.30;20.88;;;;;;;-144.40;100.00;60209.53;4841220;29;20054;-91
2022/11/14 00:06:57;;;;;;;28.60;19.67;;;;;;;-144.40;100.00;60209.53;4842426;29;20030;-92
2022/11/14 00:09:27;;;;;;;32.85;19.90;;;;;;;-144.40;100.00;60209.53;4843618;29;20030;-92
2022/11/14 00:11:52;;;;;;;27.02;19.70;;;;;;;-144.40;100.00;60209.53;4842427;29;20121;-92
2022/11/14 00:14:18;;;;;;;29.73;19.58;;;;;;;-144.40;100.00;60209.53;4842099;29;20125;-92
2022/11/14 00:16:43;;;;;;;30.75;20.80;;;;;;;-144.40;100.00;60209.53;4842063;29;20438;-92
2022/11/14 00:19:09;;;;;;;32.42;21.58;;;;;;;-144.40;100.00;60209.53;4841458;29;20033;-91
2022/11/14 00:21:34;;;;;;;30.40;20.77;;;;;;;-144.40;100.00;60209.53;4841401;29;20078;-92
2022/11/14 00:24:00;;;;;;;37.30;20.42;;;;;;;-144.40;100.00;60209.53;4842133;29;20040;-91
2022/11/14 00:26:25;;;;;;;32.35;19.88;;;;;;;-144.40;100.00;60209.53;4841740;29;20121;-92
2022/11/14 00:28:52;;;;;;;28.90;19.58;;;;;;;-144.40;100.00;60209.53;4842000;29;20101;-91
2022/11/14 00:31:18;;;;;;;29.90;20.60;;;;;;;-144.40;100.00;60209.53;4842095;29;20496;-91
2022/11/14 00:33:43;;;;;;;31.98;20.15;;;;;;;-144.40;100.00;60209.53;4841562;29;20094;-91
2022/11/14 00:36:08;;;;;;;38.42;21.38;;;;;;;-144.40;100.00;60209.53;4836967;29;20031;-91
2022/11/14 00:38:34;;;;;;;27.30;19.35;;;;;;;-144.40;100.00;60209.53;4823613;29;20042;-91
2022/11/14 00:40:59;;;;;;;25.48;18.88;;;;;;;-144.40;100.00;60209.53;4823597;29;20038;-91
2022/11/14 00:43:25;;;;;;;32.20;20.15;;;;;;;-144.40;100.00;60209.53;4823554;29;20113;-92
2022/11/14 00:45:50;;;;;;;29.80;19.63;;;;;;;-144.40;100.00;60209.53;4823611;29;20030;-91
2022/11/14 00:48:16;;;;;;;27.08;19.05;;;;;;;-144.40;100.00;60209.53;4823676;29;20508;-92
2022/11/14 00:50:42;;;;;;;29.42;20.58;;;;;;;-144.40;100.00;60209.53;4832834;29;20170;-93
2022/11/14 00:53:07;;;;;;;30.08;20.23;;;;;;;-144.40;100.00;60209.53;4842888;29;20045;-91
2022/11/14 00:55:33;;;;;;;34.97;20.73;;;;;;;-144.40;100.00;60209.53;4841581;29;20030;-91
2022/11/14 00:57:58;;;;;;;31.90;19.83;;;;;;;-144.40;100.00;60209.53;4842368;29;20025;-92
2022/11/14 01:00:23;;;;;;;30.52;19.90;;;;;;;-144.40;100.00;60209.53;4841571;29;20182;-93
2022/11/14 01:02:49;;;;;;;31.23;20.33;;;;;;;-144.40;100.00;60209.53;4842539;29;20485;-91
2022/11/14 01:05:14;;;;;;;30.60;20.42;;;;;;;-144.40;100.00;60209.53;4840455;29;20133;-95
2022/11/14 01:07:40;;;;;;;26.52;18.60;;;;;;;-144.40;100.00;60209.53;4836034;29;20044;-93
2022/11/14 01:10:06;;;;;;;27.52;18.95;;;;;;;-144.40;100.00;60209.53;4826526;29;20121;-92
2022/11/14 01:12:33;;;;;;;30.50;21.27;;;;;;;-144.40;100.00;60209.53;4832620;29;20034;-91
2022/11/14 01:14:58;;;;;;;32.42;20.85;;;;;;;-144.40;100.00;60209.53;4841088;29;20033;-92
2022/11/14 01:17:27;;;;;;;25.77;19.33;;;;;;;-144.40;100.00;60209.53;4840625;29;20125;-92
2022/11/14 01:19:53;;;;;;;29.83;20.77;;;;;;;-144.40;100.00;60209.53;4838190;29;20034;-92
2022/11/14 01:22:19;;;;;;;28.77;21.35;;;;;;;-144.40;100.00;60209.53;4849645;29;20030;-92
2022/11/14 01:24:44;;;;;;;32.13;20.58;;;;;;;-144.40;100.00;60209.53;4823096;29;20482;-93
2022/11/14 01:27:09;;;;;;;29.95;20.38;;;;;;;-144.40;100.00;60209.53;4824225;29;20486;-94
2022/11/14 01:29:35;;;;;;;31.58;21.00;;;;;;;-144.40;100.00;60209.53;4822897;29;20516;-93
2022/11/14 01:32:00;;;;;;;37.88;21.13;;;;;;;-144.40;100.00;60209.53;4822118;29;20034;-94
2022/11/14 01:34:28;;;;;;;34.13;21.58;;;;;;;-144.40;100.00;60209.53;4823787;29;20038;-92
2022/11/14 01:36:53;;;;;;;36.05;22.25;;;;;;;-144.40;100.00;60209.53;4822960;29;20494;-93
2022/11/14 01:39:19;;;;;;;26.77;20.98;;;;;;;-144.40;100.00;60209.53;4839173;29;20048;-93
2022/11/14 01:41:45;;;;;;;38.17;21.48;;;;;;;-144.40;100.00;60209.53;4841973;29;20033;-93
2022/11/14 01:44:15;;;;;;;39.60;20.25;;;;;;;-144.40;100.00;60209.53;4840792;29;20034;-91
2022/11/14 01:46:46;;;;;;;37.13;23.45;;;;;;;-144.40;100.00;60209.53;4836886;29;20233;-93
2022/11/14 01:49:21;;;;;;;34.17;21.55;;;;;;;-144.40;100.00;60209.53;4822684;29;20043;-92
2022/11/14 01:51:52;;;;;;;38.25;21.92;;;;;;;-144.40;100.00;60209.53;4822431;29;20041;-93
2022/11/14 01:54:40;;;;;;;30.58;20.20;;;;;;;-144.40;100.00;60209.53;4844331;29;20120;-92
2022/11/14 01:57:07;;;;;;;36.35;19.65;;;;;;;-144.40;100.00;60209.53;4840481;29;20085;-92
2022/11/14 01:59:40;;;;;;;35.17;20.23;;;;;;;-144.40;100.00;60209.53;4841504;29;20029;-92
2022/11/14 02:02:16;;;;;;;40.72;22.33;;;;;;;-144.40;100.00;60209.53;4832326;29;20053;-92
2022/11/14 02:04:50;;;;;;;27.95;20.40;;;;;;;-144.40;100.00;60209.53;4851514;29;20120;-93
2022/11/14 02:07:17;;;;;;;32.65;22.23;;;;;;;-144.40;100.00;60209.53;4841900;29;20031;-94
2022/11/14 02:09:45;;;;;;;29.38;20.35;;;;;;;-144.40;100.00;60209.53;4833299;29;20018;-92
2022/11/14 02:12:14;;;;;;;31.75;22.10;;;;;;;-144.40;100.00;60209.53;4840125;29;20022;-92
2022/11/14 02:14:44;;;;;;;31.88;19.08;;;;;;;-144.40;100.00;60209.53;4830926;29;20037;-92
2022/11/14 02:17:11;;;;;;;28.92;19.40;;;;;;;-144.40;100.00;60209.53;4837826;29;20116;-93
2022/11/14 02:19:42;;;;;;;25.63;19.98;;;;;;;-144.40;100.00;60209.53;4841069;29;20038;-92
2022/11/14 02:22:07;;;;;;;28.45;19.35;;;;;;;-144.40;100.00;60209.53;4841267;29;20116;-92
2022/11/14 02:24:33;;;;;;;26.92;19.40;;;;;;;-144.40;100.00;60209.53;4839823;29;20137;-93
2022/11/14 02:26:58;;;;;;;28.30;20.33;;;;;;;-144.40;100.00;60209.53;4840302;29;20038;-92
2022/11/14 02:29:24;;;;;;;31.58;20.38;;;;;;;-144.40;100.00;60209.53;4836818;29;20083;-93
2022/11/14 02:31:49;;;;;;;33.05;20.67;;;;;;;-144.40;100.00;60209.53;4830475;29;20034;-92
2022/11/14 02:34:18;;;;;;;34.17;22.30;;;;;;;-144.40;100.00;60209.53;4839054;29;20057;-91
2022/11/14 02:36:44;;;;;;;30.17;21.52;;;;;;;-144.40;100.00;60209.53;4833544;29;20569;-92
2022/11/14 02:39:09;;;;;;;35.85;24.13;;;;;;;-144.40;100.00;60209.53;4840264;29;20121;-93
2022/11/14 02:41:35;;;;;;;38.88;24.08;;;;;;;-144.40;100.00;60209.53;4840600;29;20072;-92
2022/11/14 02:44:00;;;;;;;35.67;22.10;;;;;;;-144.40;100.00;60209.53;4831722;29;20042;-92
2022/11/14 02:46:26;;;;;;;35.42;22.35;;;;;;;-144.40;100.00;60209.53;4825442;29;20041;-92
2022/11/14 02:48:51;;;;;;;40.17;22.25;;;;;;;-144.40;100.00;60209.53;4842615;29;20067;-93
2022/11/14 02:51:17;;;;;;;32.20;20.45;;;;;;;-144.40;100.00;60209.53;4842157;29;20054;-92
2022/11/14 02:53:42;;;;;;;36.75;21.98;;;;;;;-144.40;100.00;60209.53;4842886;29;20081;-92
2022/11/14 02:56:07;;;;;;;46.13;21.88;;;;;;;-144.40;100.00;60209.53;4841353;29;20034;-92
2022/11/14 02:58:33;;;;;;;35.20;21.50;;;;;;;-144.40;100.00;60209.53;4827887;29;20079;-92
2022/11/14 03:00:58;;;;;;;33.83;20.55;;;;;;;-144.40;100.00;60209.53;4825268;29;20094;-95
2022/11/14 03:03:24;;;;;;;30.15;19.58;;;;;;;-144.40;100.00;60209.53;4830140;29;20066;-93
2022/11/14 03:05:52;;;;;;;27.63;19.35;;;;;;;-144.40;100.00;60209.53;4843353;29;20035;-93
2022/11/14 03:08:18;;;;;;;32.03;19.35;;;;;;;-144.40;100.00;60209.53;4843710;29;20029;-93
2022/11/14 03:10:44;;;;;;;27.73;19.13;;;;;;;-144.40;100.00;60209.53;4840776;29;20485;-94
2022/11/14 03:13:10;;;;;;;30.67;19.25;;;;;;;-144.40;100.00;60209.53;4829724;29;20042;-93
2022/11/14 03:15:36;;;;;;;27.17;18.75;;;;;;;-144.40;100.00;60209.53;4836680;29;20045;-90
2022/11/14 03:18:02;;;;;;;29.25;18.80;;;;;;;-144.40;100.00;60209.53;4825046;29;20080;-92
2022/11/14 03:20:27;;;;;;;32.35;19.90;;;;;;;-144.40;100.00;60209.53;4824729;29;20532;-92
2022/11/14 03:22:53;;;;;;;28.67;19.83;;;;;;;-144.40;100.00;60209.53;4839546;29;20034;-92
2022/11/14 03:25:18;;;;;;;25.70;17.92;;;;;;;-144.40;100.00;60209.53;4843002;29;20031;-91
2022/11/14 03:27:44;;;;;;;35.15;18.77;;;;;;;-144.40;100.00;60209.53;4844076;29;20363;-92
2022/11/14 03:30:10;;;;;;;23.48;17.58;;;;;;;-144.40;100.00;60209.53;4842399;29;21487;-92
2022/11/14 03:32:35;;;;;;;30.55;18.15;;;;;;;-144.40;100.00;60209.53;4843604;29;20040;-91
2022/11/14 03:35:01;;;;;;;30.88;18.67;;;;;;;-144.40;100.00;60209.53;4843145;29;20137;-93
2022/11/14 03:37:26;;;;;;;27.42;18.52;;;;;;;-144.40;100.00;60209.53;4841425;29;20485;-93
2022/11/14 03:39:52;;;;;;;35.33;17.73;;;;;;;-144.40;100.00;60209.53;4845137;29;20034;-92
2022/11/14 03:42:17;;;;;;;22.77;16.13;;;;;;;-144.40;100.00;60209.53;4843059;29;20030;-93
2022/11/14 03:44:43;;;;;;;26.88;16.90;;;;;;;-144.40;100.00;60209.53;4835556;29;20030;-91
2022/11/14 03:47:08;;;;;;;27.08;15.57;;;;;;;-144.40;100.00;60209.53;4825419;29;20031;-93
2022/11/14 03:49:34;;;;;;;27.63;16.05;;;;;;;-144.40;100.00;60209.53;4824300;29;20034;-91
2022/11/14 03:51:59;;;;;;;29.35;16.67;;;;;;;-144.40;100.00;60209.53;4838131;29;20500;-92
2022/11/14 03:54:25;;;;;;;34.42;18.48;;;;;;;-144.40;100.00;60209.53;4842025;29;20194;-92
2022/11/14 03:56:50;;;;;;;32.53;20.67;;;;;;;-144.40;100.00;60209.53;4843885;29;20221;-93
2022/11/14 03:59:16;;;;;;;37.40;22.17;;;;;;;-144.40;100.00;60209.53;4842982;29;20041;-92
2022/11/14 04:01:41;;;;;;;30.27;20.15;;;;;;;-144.40;100.00;60209.53;4842303;29;20026;-92
2022/11/14 04:04:07;;;;;;;34.22;21.13;;;;;;;-144.40;100.00;60209.53;4842673;29;20033;-92
2022/11/14 04:06:32;;;;;;;35.25;20.75;;;;;;;-144.40;100.00;60209.53;4840752;29;20478;-92
2022/11/14 04:08:58;;;;;;;32.67;19.65;;;;;;;-144.40;100.00;60209.53;4842403;29;20140;-92
2022/11/14 04:11:24;;;;;;;34.08;21.27;;;;;;;-144.40;100.00;60209.53;4842466;29;20040;-93
2022/11/14 04:13:49;;;;;;;36.22;22.10;;;;;;;-144.40;100.00;60209.53;4842422;29;20038;-93
2022/11/14 04:16:15;;;;;;;29.67;20.50;;;;;;;-144.40;100.00;60209.53;4843378;29;20042;-92
2022/11/14 04:18:40;;;;;;;34.50;20.20;;;;;;;-144.40;100.00;60209.53;4842007;29;20422;-92
2022/11/14 04:21:06;;;;;;;27.10;19.77;;;;;;;-144.40;100.00;60209.53;4841454;29;20072;-94
2022/11/14 04:23:32;;;;;;;26.92;19.63;;;;;;;-144.40;100.00;60209.53;4842177;29;20371;-92
2022/11/14 04:25:57;;;;;;;35.22;20.25;;;;;;;-144.40;100.00;60209.53;4838758;29;20049;-92
2022/11/14 04:28:22;;;;;;;32.95;20.20;;;;;;;-144.40;100.00;60209.53;4824172;29;20035;-91
2022/11/14 04:30:48;;;;;;;29.90;20.25;;;;;;;-144.40;100.00;60209.53;4842025;29;20397;-91
2022/11/14 04:33:13;;;;;;;24.60;18.70;;;;;;;-144.40;100.00;60209.53;4842059;29;20030;-92
2022/11/14 04:35:39;;;;;;;26.40;18.85;;;;;;;-144.40;100.00;60209.53;4837938;29;20073;-92
2022/11/14 04:38:04;;;;;;;30.00;18.23;;;;;;;-144.40;100.00;60209.53;4823783;29;20073;-92
2022/11/14 04:40:30;;;;;;;28.33;17.80;;;;;;;-144.40;100.00;60209.53;4838838;29;20478;-93
2022/11/14 04:42:55;;;;;;;30.60;18.60;;;;;;;-144.40;100.00;60209.53;4842028;29;20029;-92
2022/11/14 04:45:21;;;;;;;28.60;16.75;;;;;;;-144.40;100.00;60209.53;4838624;29;20490;-91
2022/11/14 04:47:47;;;;;;;28.17;17.55;;;;;;;-144.40;100.00;60209.53;4841973;29;20037;-93
2022/11/14 04:50:12;;;;;;;32.60;17.75;;;;;;;-144.40;100.00;60209.53;4833991;29;20030;-91
2022/11/14 04:52:38;;;;;;;31.23;17.70;;;;;;;-144.40;100.00;60209.53;4841204;29;20041;-94
2022/11/14 04:55:04;;;;;;;35.17;16.38;;;;;;;-144.40;100.00;60209.53;4841293;29;20417;-93
2022/11/14 04:57:29;;;;;;;27.20;15.82;;;;;;;-144.40;100.00;60209.53;4840050;29;20135;-92
2022/11/14 04:59:55;;;;;;;28.60;16.98;;;;;;;-144.40;100.00;60209.53;4839891;29;20030;-95
2022/11/14 05:02:20;;;;;;;21.33;16.30;;;;;;;-144.40;100.00;60209.53;4836345;29;20067;-94
2022/11/14 05:04:47;;;;;;;26.77;16.40;;;;;;;-144.40;100.00;60209.53;4830319;29;20121;-94
2022/11/14 05:07:13;;;;;;;21.83;15.05;;;;;;;-144.40;100.00;60209.53;4839925;29;20606;-94
2022/11/14 05:09:38;;;;;;;33.63;15.98;;;;;;;-144.40;100.00;60209.53;4839671;29;20026;-95
2022/11/14 05:12:05;;;;;;;23.95;15.75;;;;;;;-144.40;100.00;60209.53;4839066;29;20393;-93
2022/11/14 05:14:31;;;;;;;23.65;14.65;;;;;;;-144.40;100.00;60209.53;4839797;29;20508;-91
2022/11/14 05:16:57;;;;;;;27.83;14.55;;;;;;;-144.40;100.00;60209.53;4854887;29;20044;-92
2022/11/14 05:19:23;;;;;;;24.58;15.90;;;;;;;-144.40;100.00;60209.53;4839136;29;20026;-91
2022/11/14 05:21:49;;;;;;;22.40;13.77;;;;;;;-144.40;100.00;60209.53;4841209;29;20389;-92
2022/11/14 05:24:14;;;;;;;19.13;13.32;;;;;;;-144.40;100.00;60209.53;4839500;29;20485;-92
2022/11/14 05:26:40;;;;;;;20.73;14.55;;;;;;;-144.40;100.00;60209.53;4840231;29;20034;-91
2022/11/14 05:29:06;;;;;;;20.63;13.43;;;;;;;-144.40;100.00;60209.53;4838448;29;20397;-91
2022/11/14 05:31:32;;;;;;;20.20;14.15;;;;;;;-144.40;100.00;60209.53;4837332;29;20034;-91
2022/11/14 05:33:57;;;;;;;27.92;14.18;;;;;;;-144.40;100.00;60209.53;4841064;29;20297;-94
2022/11/14 05:36:23;;;;;;;22.52;14.43;;;;;;;-144.40;100.00;60209.53;4840073;29;20038;-92
2022/11/14 05:38:48;;;;;;;28.15;14.00;;;;;;;-144.40;100.00;60209.53;4840111;29;20030;-91
2022/11/14 05:41:16;;;;;;;25.45;13.13;;;;;;;-144.40;100.00;60209.53;4838396;29;20030;-92
2022/11/14 05:43:42;;;;;;;26.85;13.15;;;;;;;-144.40;100.00;60209.53;4840915;29;20037;-91
2022/11/14 05:46:13;;;;;;;20.20;13.02;;;;;;;-144.40;100.00;60209.53;4839791;29;20524;-92
2022/11/14 05:48:39;;;;;;;18.65;12.93;;;;;;;-144.40;100.00;60209.53;4841582;29;20062;-91
2022/11/14 05:51:06;;;;;;;24.33;13.20;;;;;;;-144.40;100.00;60209.53;4839910;29;20038;-91
2022/11/14 05:53:32;;;;;;;17.73;12.02;;;;;;;-144.40;100.00;60209.53;4840813;29;20034;-91
2022/11/14 05:56:03;;;;;;;23.45;11.93;;;;;;;-144.40;100.00;60209.53;4839543;29;20026;-91
2022/11/14 05:58:30;;;;;;;21.88;13.35;;;;;;;-144.40;100.00;60209.53;4840756;29;20026;-93
2022/11/14 06:01:16;;;;;;;24.23;12.43;;;;;;;-144.40;100.00;60209.53;4841869;29;20041;-91
2022/11/14 06:03:43;;;;;;;24.52;12.68;;;;;;;-144.40;100.00;60209.53;4841863;29;20194;-92
2022/11/14 06:06:12;;;;;;;17.45;13.00;;;;;;;-144.40;100.00;60209.53;4842228;29;20034;-92
2022/11/14 06:08:38;;;;;;;24.23;12.85;;;;;;;-144.40;100.00;60209.53;4841662;29;20029;-90
2022/11/14 06:11:06;;;;;;;15.95;11.85;;;;;;;-144.40;100.00;60209.53;4840117;29;20056;-92
2022/11/14 06:13:33;;;;;;;17.38;12.77;;;;;;;-144.40;100.00;60209.53;4840442;29;20025;-92
2022/11/14 06:16:00;;;;;;;24.98;14.13;;;;;;;-144.40;100.00;60209.53;4839908;29;20450;-91
2022/11/14 06:18:27;;;;;;;19.83;14.18;;;;;;;-144.40;100.00;60209.53;4845459;29;20417;-92
2022/11/14 06:20:53;;;;;;;21.45;12.95;;;;;;;-144.40;100.00;60209.53;4847164;29;20026;-91
2022/11/14 06:23:18;;;;;;;18.65;13.10;;;;;;;-144.40;100.00;60209.53;4846446;29;20037;-91
2022/11/14 06:25:44;;;;;;;19.23;12.55;;;;;;;-144.40;100.00;60209.53;4841185;29;20036;-91
2022/11/14 06:28:09;;;;;;;18.45;12.93;;;;;;;-144.40;100.00;60209.53;4841581;29;20083;-92
2022/11/14 06:30:35;;;;;;;18.08;11.77;;;;;;;-144.40;100.00;60209.53;4840194;29;20097;-93
2022/11/14 06:33:00;;;;;;;18.83;13.00;;;;;;;-144.40;100.00;60209.53;4843054;29;20046;-91
2022/11/14 06:35:26;;;;;;;17.17;12.27;;;;;;;-144.40;100.00;60209.53;4845878;29;20054;-92
2022/11/14 06:37:52;;;;;;;23.80;12.27;;;;;;;-144.40;100.00;60209.53;4846900;29;20030;-92
2022/11/14 06:40:18;;;;;;;21.77;12.80;;;;;;;-144.40;100.00;60209.53;4844199;29;20018;-92
2022/11/14 06:42:43;;;;;;;26.42;11.65;;;;;;;-144.40;100.00;60209.53;4833643;29;20117;-92
2022/11/14 06:45:09;;;;;;;23.83;13.02;;;;;;;-144.40;100.00;60209.53;4846297;29;20049;-91
2022/11/14 06:47:35;;;;;;;19.27;12.38;;;;;;;-144.40;100.00;60209.53;4845189;29;20030;-92
2022/11/14 06:50:00;;;;;;;23.35;12.85;;;;;;;-144.40;100.00;60209.53;4845637;29;20090;-90
2022/11/14 06:52:26;;;;;;;25.92;13.57;;;;;;;-144.40;100.00;60209.53;4847383;29;20045;-92
2022/11/14 06:54:51;;;;;;;19.00;13.30;;;;;;;-144.40;100.00;60209.53;4841644;29;20118;-94
2022/11/14 06:57:18;;;;;;;20.55;13.25;;;;;;;-144.40;100.00;60209.53;4843686;29;20469;-93
2022/11/14 06:59:43;;;;;;;24.17;13.90;;;;;;;-144.40;100.00;60209.53;4845086;29;20465;-92
2022/11/14 07:02:12;;;;;;;26.00;12.95;;;;;;;-144.40;100.00;60209.53;4847068;29;20034;-91
2022/11/14 07:04:38;;;;;;;23.55;13.45;;;;;;;-144.40;100.00;60209.53;4845677;29;20025;-92
2022/11/14 07:07:04;;;;;;;32.75;13.40;;;;;;;-144.40;100.00;60209.53;4846015;29;20030;-91
2022/11/14 07:09:29;;;;;;;22.77;13.15;;;;;;;-144.40;100.00;60209.53;4847261;29;20021;-91
2022/11/14 07:11:55;;;;;;;25.13;13.80;;;;;;;-144.40;100.00;60209.53;4847023;29;20037;-93
2022/11/14 07:14:20;;;;;;;20.13;13.18;;;;;;;-144.40;100.00;60209.53;4844649;29;20033;-93
2022/11/14 07:16:46;;;;;;;21.17;14.02;;;;;;;-144.40;100.00;60209.53;4847074;29;20500;-92
2022/11/14 07:19:12;;;;;;;19.00;13.77;;;;;;;-144.40;100.00;60209.53;4845654;29;20113;-92
2022/11/14 07:21:38;;;;;;;27.23;14.43;;;;;;;-144.40;100.00;60209.53;4845648;29;20125;-93
2022/11/14 07:24:04;;;;;;;22.02;12.82;;;;;;;-144.40;100.00;60209.53;4845561;29;20034;-93
2022/11/14 07:26:29;;;;;;;20.40;14.10;;;;;;;-144.40;100.00;60209.53;4845989;29;20033;-93
2022/11/14 07:28:55;;;;;;;18.35;13.57;;;;;;;-144.40;100.00;60209.53;4839555;29;20034;-92
2022/11/14 07:31:21;;;;;;;22.83;13.85;;;;;;;-144.40;100.00;60209.53;4834885;29;20030;-90
2022/11/14 07:33:47;;;;;;;20.42;13.63;;;;;;;-144.40;100.00;60209.53;4844022;29;20026;-93
2022/11/14 07:36:14;;;;;;;24.45;14.93;;;;;;;-144.40;100.00;60209.53;4842600;29;20030;-92
2022/11/14 07:38:40;;;;;;;22.40;13.93;;;;;;;-144.40;100.00;60209.53;4842317;29;20030;-92
2022/11/14 07:41:09;;;;;;;32.90;13.75;;;;;;;-144.40;100.00;60209.53;4842851;29;20060;-92
2022/11/14 07:43:34;;;;;;;21.13;12.10;;;;;;;-144.40;100.00;60209.53;4843496;29;20033;-92
2022/11/14 07:46:04;;;;;;;20.95;12.68;;;;;;;-144.40;100.00;60209.53;4840590;29;20042;-92
2022/11/14 07:48:30;;;;;;;17.92;12.00;;;;;;;-144.40;100.00;60209.53;4842252;29;20170;-92
2022/11/14 07:50:59;;;;;;;22.48;12.50;;;;;;;-144.40;100.00;60209.53;4842605;29;20194;-93
2022/11/14 07:53:26;;;;;;;18.90;13.23;;;;;;;-144.40;100.00;60209.53;4842391;29;20121;-92
2022/11/14 07:55:51;;;;;;;22.00;14.30;;;;;;;-144.40;100.00;60209.53;4842630;29;20041;-91
2022/11/14 07:58:17;;;;;;;24.73;13.63;;;;;;;-144.40;100.00;60209.53;4841988;29;20442;-93
2022/11/14 08:00:42;;;;;;;24.63;14.57;;;;;;;-144.40;100.00;60209.53;4841395;29;20028;-92
2022/11/14 08:03:09;;;;;;;18.98;12.55;;;;;;;-144.40;100.00;60209.53;4841227;29;20040;-92
2022/11/14 08:05:34;;;;;;;22.13;11.95;;;;;;;-144.40;100.00;60209.53;4843479;29;20113;-93
2022/11/14 08:08:00;;;;;;;19.83;13.55;;;;;;;-144.40;100.00;60209.53;4842176;29;20126;-92
2022/11/14 08:10:25;;;;;;;24.38;14.27;;;;;;;-144.40;100.00;60209.53;4843541;29;20057;-93
2022/11/14 08:12:59;;;;;;;21.08;13.90;;;;;;;-144.40;100.00;60209.53;4842101;29;20133;-92
2022/11/14 08:15:25;;;;;;;21.02;13.38;;;;;;;-144.40;100.00;60209.53;4840343;29;20057;-93
2022/11/14 08:17:50;;;;;;;19.55;13.35;;;;;;;-144.40;100.00;60209.53;4838752;29;20076;-93
2022/11/14 08:20:16;;;;;;;23.65;13.77;;;;;;;-144.40;100.00;60209.53;4823728;29;20490;-92
2022/11/14 08:22:41;;;;;;;21.85;14.13;;;;;;;-144.40;100.00;60209.53;4833406;29;20034;-92
2022/11/14 08:25:07;;;;;;;23.48;13.38;;;;;;;-144.40;100.00;60209.53;4841570;29;20030;-92
2022/11/14 08:27:33;;;;;;;16.77;13.35;;;;;;;-144.40;100.00;60209.53;4843351;29;20034;-93
2022/11/14 08:29:58;;;;;;;23.83;12.63;;;;;;;-144.40;100.00;60209.53;4840708;29;20389;-93
2022/11/14 08:32:24;;;;;;;22.70;12.60;;;;;;;-144.40;100.00;60209.53;4841781;29;20489;-93
2022/11/14 08:34:49;;;;;;;22.05;13.00;;;;;;;-144.40;100.00;60209.53;4842819;29;20030;-92
2022/11/14 08:37:15;;;;;;;20.25;13.23;;;;;;;-144.40;100.00;60209.53;4842113;29;20177;-93
2022/11/14 08:39:40;;;;;;;23.58;12.95;;;;;;;-144.40;100.00;60209.53;4838215;29;20041;-93
2022/11/14 08:42:05;;;;;;;26.30;13.68;;;;;;;-144.40;100.00;60209.53;4825750;29;20029;-93
2022/11/14 08:44:31;;;;;;;18.80;13.10;;;;;;;-144.40;100.00;60209.53;4841652;29;20123;-93
2022/11/14 08:46:59;;;;;;;26.45;13.25;;;;;;;-144.40;100.00;60209.53;4841233;29;20042;-92
2022/11/14 08:49:25;;;;;;;20.63;12.90;;;;;;;-144.40;100.00;60209.53;4841505;29;20026;-92
2022/11/14 08:51:53;;;;;;;23.42;13.27;;;;;;;-144.40;100.00;60209.53;4841371;29;20033;-93
2022/11/14 08:54:19;;;;;;;19.95;11.95;;;;;;;-144.40;100.00;60209.53;4836629;29;20038;-93
2022/11/14 08:56:44;;;;;;;18.08;11.48;;;;;;;-144.40;100.00;60209.53;4823045;29;20037;-92
2022/11/14 08:59:10;;;;;;;24.27;12.27;;;;;;;-144.40;100.00;60209.53;4827066;29;20026;-92
2022/11/14 09:01:35;;;;;;;23.05;12.10;;;;;;;-144.40;100.00;60209.53;4841246;29;20054;-92
2022/11/14 09:04:01;;;;;;;22.95;11.68;;;;;;;-144.40;100.00;60209.53;4840613;29;20048;-92
2022/11/14 09:06:27;;;;;;;20.23;11.68;;;;;;;-144.40;100.00;60209.53;4841770;29;20041;-91
2022/11/14 09:08:52;;;;;;;20.63;11.57;;;;;;;-144.40;100.00;60209.53;4823576;29;20477;-93
2022/11/14 09:11:18;;;;;;;19.00;10.77;;;;;;;-144.40;100.00;60209.53;4841018;29;20109;-93
2022/11/14 09:13:43;;;;;;;28.38;12.55;;;;;;;-144.40;100.00;60209.53;4840228;29;20029;-94
2022/11/14 09:16:09;;;;;;;18.20;10.93;;;;;;;-144.40;100.00;60209.53;4837158;29;20550;-93
2022/11/14 09:18:34;;;;;;;18.23;11.73;;;;;;;-144.40;100.00;60209.53;4822878;29;20026;-92
2022/11/14 09:21:06;;;;;;;27.13;11.90;;;;;;;-144.40;100.00;60209.53;4822778;29;20481;-94
2022/11/14 09:23:32;;;;;;;23.25;11.20;;;;;;;-144.40;100.00;60209.53;4825879;29;20034;-93
2022/11/14 09:26:01;;;;;;;22.98;11.60;;;;;;;-144.40;100.00;60209.53;4837446;29;20034;-92
2022/11/14 09:28:27;;;;;;;17.00;10.70;;;;;;;-144.40;100.00;60209.53;4820663;29;20067;-93
2022/11/14 09:30:52;;;;;;;29.10;12.55;;;;;;;-144.40;100.00;60209.53;4820362;29;20485;-93
2022/11/14 09:33:18;;;;;;;14.65;9.30;;;;;;;-144.40;100.00;60209.53;4828548;29;20351;-92
2022/11/14 09:35:43;;;;;;;16.88;10.07;;;;;;;-144.40;100.00;60209.53;4840815;29;20029;-92
2022/11/14 09:38:10;;;;;;;16.15;10.32;;;;;;;-144.40;100.00;60209.53;4839290;29;20037;-94
2022/11/14 09:40:55;;;;;;;18.85;8.95;;;;;;;-144.40;100.00;60209.53;4840381;29;20029;-92
2022/11/14 09:43:29;;;;;;;22.90;9.30;;;;;;;-144.40;100.00;60209.53;4839769;29;20030;-93
2022/11/14 09:45:55;;;;;;;21.45;8.85;;;;;;;-144.40;100.00;60209.53;4840468;29;20034;-93
2022/11/14 09:48:26;;;;;;;16.40;9.30;;;;;;;-144.40;100.00;60209.53;4840827;29;20026;-92
2022/11/14 09:51:22;;;;;;;13.70;8.55;;;;;;;-144.40;100.00;60209.53;4840137;29;20061;-90
2022/11/14 09:54:24;;;;;;;19.25;9.32;;;;;;;-144.40;100.00;60209.53;4833006;29;20034;-93
2022/11/14 09:56:50;;;;;;;19.30;8.18;;;;;;;-144.40;100.00;60209.53;4840562;29;20179;-93
2022/11/14 09:59:16;;;;;;;20.33;8.30;;;;;;;-144.40;100.00;60209.53;4839624;29;20058;-93
2022/11/14 10:01:56;;;;;;;17.80;7.70;;;;;;;-144.40;100.00;60209.53;4841529;29;20059;-94
2022/11/14 10:04:48;;;;;;;17.45;6.50;;;;;;;-144.40;100.00;60209.53;4840392;29;20493;-93
2022/11/14 10:07:19;;;;;;;11.82;6.43;;;;;;;-144.40;100.00;60209.53;4840525;29;20033;-94
2022/11/14 10:09:51;;;;;;;16.77;6.82;;;;;;;-144.40;100.00;60209.53;4840614;29;20030;-94
2022/11/14 10:12:22;;;;;;;17.08;6.10;;;;;;;-144.40;100.00;60209.53;4840660;29;20042;-94
2022/11/14 10:15:05;;;;;;;10.63;5.60;;;;;;;-144.40;100.00;60209.53;4838132;29;20025;-94
2022/11/14 10:17:52;;;;;;;17.83;6.25;;;;;;;-144.40;100.00;60209.53;4839446;29;20034;-93
2022/11/14 10:21:02;;;;;;;15.43;6.50;;;;;;;-144.40;100.00;60209.53;4834843;29;20386;-95
2022/11/14 10:23:43;;;;;;;12.25;6.57;;;;;;;-144.40;100.00;60209.53;4825614;29;20049;-93
2022/11/14 10:26:22;;;;;;;21.00;5.95;;;;;;;-144.40;100.00;60209.53;4830811;29;20066;-92
2022/11/14 10:29:07;;;;;;;16.13;5.10;;;;;;;-144.40;100.00;60209.53;4832838;29;20039;-94
2022/11/14 10:31:35;;;;;;;15.05;5.55;;;;;;;-144.40;100.00;60209.53;4837571;29;20038;-91
2022/11/14 10:34:13;;;;;;;14.23;5.13;;;;;;;-144.40;100.00;60209.53;4828707;29;20039;-94
2022/11/14 10:36:54;;;;;;;10.88;4.57;;;;;;;-144.40;100.00;60209.53;4836746;29;20053;-92
2022/11/14 10:39:38;;;;;;;13.85;5.13;;;;;;;-144.40;100.00;60209.53;4835835;29;20554;-94
2022/11/14 10:42:13;;;;;;;14.52;6.10;;;;;;;-144.40;100.00;60209.53;4839593;29;20082;-95
2022/11/14 10:44:49;;;;;;;14.68;5.10;;;;;;;-144.40;100.00;60209.53;4823566;29;20070;-93
2022/11/14 10:47:20;;;;;;;11.80;5.13;;;;;;;-144.40;100.00;60209.53;4821489;29;20057;-92
2022/11/14 10:49:51;;;;;;;13.60;5.10;;;;;;;-144.40;100.00;60209.53;4831432;29;20060;-93
2022/11/14 10:52:21;;;;;;;14.60;4.55;;;;;;;-144.40;100.00;60209.53;4839489;29;20405;-93
2022/11/14 10:54:58;;;;;;;11.50;4.13;;;;;;;-144.40;100.00;60209.53;4839198;29;20026;-93
2022/11/14 10:57:24;;;;;;;10.27;4.22;;;;;;;-144.40;100.00;60209.53;4839011;29;20030;-91